sensor_id;sensor_type;location;lat;lon;timestamp;pressure;altitude;pressure_sealevel;temperature;humidity
59545;BME280;45368;55.002;-1.592;2023-03-15T00:01:19;100531.40;;;-0.53;60.33
59545;BME280;45368;55.002;-1.592;2023-03-15T00:03:47;100529.32;;;0.42;58.65
59545;BME280;45368;55.002;-1.592;2023-03-15T00:06:16;100532.22;;;0.25;59.34
59545;BME280;45368;55.002;-1.592;2023-03-15T00:08:43;100534.29;;;-0.76;61.19
59545;BME280;45368;55.002;-1.592;2023-03-15T00:11:11;100539.27;;;-1.15;61.15
59545;BME280;45368;55.002;-1.592;2023-03-15T00:13:39;100534.38;;;-0.44;59.73
59545;BME280;45368;55.002;-1.592;2023-03-15T00:16:06;100535.84;;;0.19;57.25
59545;BME280;45368;55.002;-1.592;2023-03-15T00:18:34;100538.94;;;-0.32;59.02
59545;BME280;45368;55.002;-1.592;2023-03-15T00:21:01;100543.17;;;-1.16;61.12
59545;BME280;45368;55.002;-1.592;2023-03-15T00:23:29;100544.48;;;-0.53;60.21
59545;BME280;45368;55.002;-1.592;2023-03-15T00:25:58;100541.66;;;0.49;57.28
59545;BME280;45368;55.002;-1.592;2023-03-15T00:28:30;100537.72;;;0.76;56.09
59545;BME280;45368;55.002;-1.592;2023-03-15T00:31:07;100539.64;;;0.82;55.85
59545;BME280;45368;55.002;-1.592;2023-03-15T00:33:35;100547.20;;;1.13;55.45
59545;BME280;45368;55.002;-1.592;2023-03-15T00:36:04;100549.87;;;0.11;57.37
59545;BME280;45368;55.002;-1.592;2023-03-15T00:38:31;100546.03;;;0.74;56.61
59545;BME280;45368;55.002;-1.592;2023-03-15T00:41:03;100555.47;;;-0.32;58.61
59545;BME280;45368;55.002;-1.592;2023-03-15T00:43:31;100555.21;;;-0.87;61.31
59545;BME280;45368;55.002;-1.592;2023-03-15T00:46:21;100560.52;;;-1.37;62.24
59545;BME280;45368;55.002;-1.592;2023-03-15T00:48:50;100563.63;;;-1.61;63.33
59545;BME280;45368;55.002;-1.592;2023-03-15T00:51:21;100565.17;;;-1.03;62.11
59545;BME280;45368;55.002;-1.592;2023-03-15T00:53:51;100571.62;;;-0.61;60.52
59545;BME280;45368;55.002;-1.592;2023-03-15T00:56:19;100572.84;;;-0.90;61.41
59545;BME280;45368;55.002;-1.592;2023-03-15T00:58:48;100572.69;;;-1.09;60.89
59545;BME280;45368;55.002;-1.592;2023-03-15T01:01:18;100568.43;;;-0.92;60.06
59545;BME280;45368;55.002;-1.592;2023-03-15T01:03:46;100567.27;;;0.41;57.91
59545;BME280;45368;55.002;-1.592;2023-03-15T01:06:16;100571.49;;;-0.28;59.39
59545;BME280;45368;55.002;-1.592;2023-03-15T01:08:44;100576.56;;;-0.93;60.60
59545;BME280;45368;55.002;-1.592;2023-03-15T01:11:14;100576.84;;;-0.38;58.92
59545;BME280;45368;55.002;-1.592;2023-03-15T01:13:43;100575.47;;;-0.17;58.13
59545;BME280;45368;55.002;-1.592;2023-03-15T01:16:12;100578.88;;;0.05;57.34
59545;BME280;45368;55.002;-1.592;2023-03-15T01:18:40;100583.35;;;-0.71;60.10
59545;BME280;45368;55.002;-1.592;2023-03-15T01:21:09;100583.61;;;-0.82;60.54
59545;BME280;45368;55.002;-1.592;2023-03-15T01:23:36;100578.59;;;-0.60;59.37
59545;BME280;45368;55.002;-1.592;2023-03-15T01:26:05;100577.23;;;-0.41;58.88
59545;BME280;45368;55.002;-1.592;2023-03-15T01:28:33;100573.74;;;-0.46;59.14
59545;BME280;45368;55.002;-1.592;2023-03-15T01:31:04;100571.98;;;-0.52;59.61
59545;BME280;45368;55.002;-1.592;2023-03-15T01:33:32;100577.18;;;-1.43;60.70
59545;BME280;45368;55.002;-1.592;2023-03-15T01:36:00;100583.78;;;-0.94;60.11
59545;BME280;45368;55.002;-1.592;2023-03-15T01:38:28;100588.91;;;-1.31;60.44
59545;BME280;45368;55.002;-1.592;2023-03-15T01:40:55;100589.03;;;-1.04;59.72
59545;BME280;45368;55.002;-1.592;2023-03-15T01:43:24;100587.28;;;0.25;56.90
59545;BME280;45368;55.002;-1.592;2023-03-15T01:46:04;100594.74;;;0.27;56.53
59545;BME280;45368;55.002;-1.592;2023-03-15T01:48:36;100603.54;;;-0.29;57.68
59545;BME280;45368;55.002;-1.592;2023-03-15T01:51:09;100600.90;;;0.63;55.84
59545;BME280;45368;55.002;-1.592;2023-03-15T01:53:46;100603.80;;;0.12;56.47
59545;BME280;45368;55.002;-1.592;2023-03-15T01:56:16;100602.97;;;0.05;56.87
59545;BME280;45368;55.002;-1.592;2023-03-15T01:58:44;100601.26;;;0.03;56.54
59545;BME280;45368;55.002;-1.592;2023-03-15T02:01:13;100605.64;;;-0.27;57.03
59545;BME280;45368;55.002;-1.592;2023-03-15T02:03:45;100604.77;;;-0.71;57.75
59545;BME280;45368;55.002;-1.592;2023-03-15T02:06:16;100596.41;;;0.68;55.58
59545;BME280;45368;55.002;-1.592;2023-03-15T02:08:48;100600.50;;;-0.02;56.35
59545;BME280;45368;55.002;-1.592;2023-03-15T02:11:19;100608.42;;;-0.55;58.55
59545;BME280;45368;55.002;-1.592;2023-03-15T02:16:04;100608.57;;;-0.29;59.01
59545;BME280;45368;55.002;-1.592;2023-03-15T02:18:52;100603.66;;;-1.06;57.99
59545;BME280;45368;55.002;-1.592;2023-03-15T02:21:30;100595.67;;;-0.09;56.55
59545;BME280;45368;55.002;-1.592;2023-03-15T02:24:08;100606.01;;;-0.86;57.84
59545;BME280;45368;55.002;-1.592;2023-03-15T02:26:43;100605.78;;;-0.75;58.05
59545;BME280;45368;55.002;-1.592;2023-03-15T02:29:11;100608.93;;;-1.43;59.74
59545;BME280;45368;55.002;-1.592;2023-03-15T02:31:39;100609.17;;;-0.49;57.52
59545;BME280;45368;55.002;-1.592;2023-03-15T02:34:07;100604.08;;;0.23;55.87
59545;BME280;45368;55.002;-1.592;2023-03-15T02:36:35;100608.89;;;-0.36;56.55
59545;BME280;45368;55.002;-1.592;2023-03-15T02:39:19;100611.56;;;-0.35;57.26
59545;BME280;45368;55.002;-1.592;2023-03-15T02:41:51;100612.59;;;-0.99;57.12
59545;BME280;45368;55.002;-1.592;2023-03-15T02:44:22;100614.24;;;-0.42;56.73
59545;BME280;45368;55.002;-1.592;2023-03-15T02:47:00;100620.18;;;-0.49;56.71
59545;BME280;45368;55.002;-1.592;2023-03-15T02:49:31;100623.97;;;-0.32;57.36
59545;BME280;45368;55.002;-1.592;2023-03-15T02:52:01;100624.17;;;-0.56;57.14
59545;BME280;45368;55.002;-1.592;2023-03-15T02:54:29;100622.89;;;-0.96;57.64
59545;BME280;45368;55.002;-1.592;2023-03-15T02:56:56;100617.83;;;-0.67;58.45
59545;BME280;45368;55.002;-1.592;2023-03-15T02:59:24;100617.28;;;-0.55;57.56
59545;BME280;45368;55.002;-1.592;2023-03-15T03:01:51;100615.12;;;-0.87;57.85
59545;BME280;45368;55.002;-1.592;2023-03-15T03:04:18;100618.24;;;-1.65;59.93
59545;BME280;45368;55.002;-1.592;2023-03-15T03:06:45;100614.60;;;-1.56;59.65
59545;BME280;45368;55.002;-1.592;2023-03-15T03:09:13;100613.58;;;-2.17;62.44
59545;BME280;45368;55.002;-1.592;2023-03-15T03:11:40;100606.92;;;-2.01;62.79
59545;BME280;45368;55.002;-1.592;2023-03-15T03:14:07;100600.19;;;-1.86;61.72
59545;BME280;45368;55.002;-1.592;2023-03-15T03:16:34;100602.81;;;-2.25;62.65
59545;BME280;45368;55.002;-1.592;2023-03-15T03:19:02;100597.21;;;-1.48;59.98
59545;BME280;45368;55.002;-1.592;2023-03-15T03:21:29;100605.71;;;-2.09;60.90
59545;BME280;45368;55.002;-1.592;2023-03-15T03:23:57;100610.49;;;-2.37;62.97
59545;BME280;45368;55.002;-1.592;2023-03-15T03:26:25;100609.51;;;-2.29;63.10
59545;BME280;45368;55.002;-1.592;2023-03-15T03:28:53;100601.07;;;-1.82;61.50
59545;BME280;45368;55.002;-1.592;2023-03-15T03:31:22;100593.31;;;-1.45;60.96
59545;BME280;45368;55.002;-1.592;2023-03-15T03:33:50;100593.81;;;-1.77;61.89
59545;BME280;45368;55.002;-1.592;2023-03-15T03:36:18;100592.25;;;-2.42;63.07
59545;BME280;45368;55.002;-1.592;2023-03-15T03:38:46;100597.45;;;-2.65;63.84
59545;BME280;45368;55.002;-1.592;2023-03-15T03:41:14;100594.85;;;-2.86;64.06
59545;BME280;45368;55.002;-1.592;2023-03-15T03:43:42;100601.09;;;-2.55;63.47
59545;BME280;45368;55.002;-1.592;2023-03-15T03:46:09;100602.84;;;-2.08;62.42
59545;BME280;45368;55.002;-1.592;2023-03-15T03:48:36;100603.07;;;-1.80;60.79
59545;BME280;45368;55.002;-1.592;2023-03-15T03:51:04;100605.85;;;-1.97;61.83
59545;BME280;45368;55.002;-1.592;2023-03-15T03:53:32;100613.72;;;-2.94;64.22
59545;BME280;45368;55.002;-1.592;2023-03-15T03:55:59;100613.01;;;-2.57;64.13
59545;BME280;45368;55.002;-1.592;2023-03-15T03:58:26;100611.62;;;-2.69;64.03
59545;BME280;45368;55.002;-1.592;2023-03-15T04:00:53;100612.79;;;-2.91;63.99
59545;BME280;45368;55.002;-1.592;2023-03-15T04:03:20;100605.42;;;-2.19;63.22
59545;BME280;45368;55.002;-1.592;2023-03-15T04:05:48;100612.82;;;-2.72;64.12
59545;BME280;45368;55.002;-1.592;2023-03-15T04:08:15;100618.32;;;-2.95;65.80
59545;BME280;45368;55.002;-1.592;2023-03-15T04:10:42;100617.04;;;-2.76;65.65
59545;BME280;45368;55.002;-1.592;2023-03-15T04:13:09;100620.31;;;-3.15;65.42
59545;BME280;45368;55.002;-1.592;2023-03-15T04:15:37;100617.87;;;-3.10;65.85
59545;BME280;45368;55.002;-1.592;2023-03-15T04:18:04;100612.73;;;-3.55;66.42
59545;BME280;45368;55.002;-1.592;2023-03-15T04:20:36;100612.80;;;-3.13;65.46
59545;BME280;45368;55.002;-1.592;2023-03-15T04:23:03;100608.12;;;-2.79;65.14
59545;BME280;45368;55.002;-1.592;2023-03-15T04:25:31;100603.61;;;-2.46;64.24
59545;BME280;45368;55.002;-1.592;2023-03-15T04:27:58;100609.16;;;-2.66;64.10
59545;BME280;45368;55.002;-1.592;2023-03-15T04:30:27;100611.68;;;-3.04;65.69
59545;BME280;45368;55.002;-1.592;2023-03-15T04:32:55;100605.16;;;-2.44;64.25
59545;BME280;45368;55.002;-1.592;2023-03-15T04:35:22;100607.86;;;-2.00;62.61
59545;BME280;45368;55.002;-1.592;2023-03-15T04:37:50;100603.30;;;-1.97;61.58
59545;BME280;45368;55.002;-1.592;2023-03-15T04:40:17;100600.88;;;-2.25;62.65
59545;BME280;45368;55.002;-1.592;2023-03-15T04:42:45;100602.64;;;-2.84;62.82
59545;BME280;45368;55.002;-1.592;2023-03-15T04:45:12;100609.60;;;-2.66;63.56
59545;BME280;45368;55.002;-1.592;2023-03-15T04:47:39;100614.93;;;-3.19;65.30
59545;BME280;45368;55.002;-1.592;2023-03-15T04:50:08;100610.02;;;-3.26;66.47
59545;BME280;45368;55.002;-1.592;2023-03-15T04:52:36;100612.34;;;-3.72;67.99
59545;BME280;45368;55.002;-1.592;2023-03-15T04:55:03;100613.23;;;-2.76;66.25
59545;BME280;45368;55.002;-1.592;2023-03-15T04:57:30;100612.24;;;-2.40;63.53
59545;BME280;45368;55.002;-1.592;2023-03-15T04:59:58;100603.17;;;-2.05;63.32
59545;BME280;45368;55.002;-1.592;2023-03-15T05:02:26;100602.83;;;-3.02;65.28
59545;BME280;45368;55.002;-1.592;2023-03-15T05:04:53;100599.34;;;-2.56;64.78
59545;BME280;45368;55.002;-1.592;2023-03-15T05:07:20;100596.07;;;-2.03;63.30
59545;BME280;45368;55.002;-1.592;2023-03-15T05:09:48;100593.39;;;-2.53;64.09
59545;BME280;45368;55.002;-1.592;2023-03-15T05:12:16;100588.44;;;-1.73;62.15
59545;BME280;45368;55.002;-1.592;2023-03-15T05:14:43;100583.43;;;-1.60;61.32
59545;BME280;45368;55.002;-1.592;2023-03-15T05:17:15;100581.57;;;-1.70;61.25
59545;BME280;45368;55.002;-1.592;2023-03-15T05:19:42;100579.97;;;-2.43;62.92
59545;BME280;45368;55.002;-1.592;2023-03-15T05:22:09;100581.78;;;-2.57;62.26
59545;BME280;45368;55.002;-1.592;2023-03-15T05:24:36;100583.04;;;-2.68;64.12
59545;BME280;45368;55.002;-1.592;2023-03-15T05:27:04;100583.54;;;-3.53;66.68
59545;BME280;45368;55.002;-1.592;2023-03-15T05:29:31;100594.81;;;-4.04;67.57
59545;BME280;45368;55.002;-1.592;2023-03-15T05:31:59;100588.48;;;-3.54;66.21
59545;BME280;45368;55.002;-1.592;2023-03-15T05:34:27;100582.66;;;-3.08;65.76
59545;BME280;45368;55.002;-1.592;2023-03-15T05:36:53;100571.94;;;-2.90;63.94
59545;BME280;45368;55.002;-1.592;2023-03-15T05:39:20;100576.93;;;-2.66;63.61
59545;BME280;45368;55.002;-1.592;2023-03-15T05:41:48;100583.94;;;-2.37;62.62
59545;BME280;45368;55.002;-1.592;2023-03-15T05:44:16;100579.63;;;-1.78;61.29
59545;BME280;45368;55.002;-1.592;2023-03-15T05:46:43;100587.51;;;-1.99;60.70
59545;BME280;45368;55.002;-1.592;2023-03-15T05:49:11;100594.63;;;-2.19;60.55
59545;BME280;45368;55.002;-1.592;2023-03-15T05:51:38;100601.65;;;-3.43;63.02
59545;BME280;45368;55.002;-1.592;2023-03-15T05:54:05;100602.06;;;-3.46;63.41
59545;BME280;45368;55.002;-1.592;2023-03-15T05:56:33;100606.20;;;-2.66;61.82
59545;BME280;45368;55.002;-1.592;2023-03-15T05:58:59;100606.89;;;-1.51;58.97
59545;BME280;45368;55.002;-1.592;2023-03-15T06:01:27;100611.67;;;-2.47;61.46
59545;BME280;45368;55.002;-1.592;2023-03-15T06:03:55;100609.86;;;-2.15;59.48
59545;BME280;45368;55.002;-1.592;2023-03-15T06:06:22;100612.88;;;-0.83;57.85
59545;BME280;45368;55.002;-1.592;2023-03-15T06:08:49;100613.42;;;-1.26;58.19
59545;BME280;45368;55.002;-1.592;2023-03-15T06:11:17;100624.59;;;-3.29;62.01
59545;BME280;45368;55.002;-1.592;2023-03-15T06:13:44;100624.89;;;-2.74;62.64
59545;BME280;45368;55.002;-1.592;2023-03-15T06:16:12;100624.21;;;-2.55;60.95
59545;BME280;45368;55.002;-1.592;2023-03-15T06:18:39;100622.98;;;-3.59;63.15
59545;BME280;45368;55.002;-1.592;2023-03-15T06:21:06;100628.67;;;-3.25;63.00
59545;BME280;45368;55.002;-1.592;2023-03-15T06:23:34;100625.66;;;-1.93;60.44
59545;BME280;45368;55.002;-1.592;2023-03-15T06:26:01;100618.82;;;-1.42;57.72
59545;BME280;45368;55.002;-1.592;2023-03-15T06:28:28;100614.31;;;-1.03;57.19
59545;BME280;45368;55.002;-1.592;2023-03-15T06:31:07;100609.00;;;-1.46;57.66
59545;BME280;45368;55.002;-1.592;2023-03-15T06:33:35;100623.28;;;-1.00;56.77
59545;BME280;45368;55.002;-1.592;2023-03-15T06:36:07;100628.95;;;-1.18;57.20
59545;BME280;45368;55.002;-1.592;2023-03-15T06:38:34;100636.84;;;-1.87;57.95
59545;BME280;45368;55.002;-1.592;2023-03-15T06:41:01;100644.52;;;-2.88;61.45
59545;BME280;45368;55.002;-1.592;2023-03-15T06:43:30;100646.48;;;-2.74;61.34
59545;BME280;45368;55.002;-1.592;2023-03-15T06:46:02;100653.98;;;-2.23;60.60
59545;BME280;45368;55.002;-1.592;2023-03-15T06:48:30;100656.71;;;-2.43;60.69
59545;BME280;45368;55.002;-1.592;2023-03-15T06:50:58;100657.23;;;-2.57;62.09
59545;BME280;45368;55.002;-1.592;2023-03-15T06:53:25;100660.19;;;-2.80;62.86
59545;BME280;45368;55.002;-1.592;2023-03-15T06:55:52;100659.43;;;-2.45;62.25
59545;BME280;45368;55.002;-1.592;2023-03-15T06:58:20;100662.33;;;-2.04;61.29
59545;BME280;45368;55.002;-1.592;2023-03-15T07:00:48;100657.20;;;-2.30;61.51
59545;BME280;45368;55.002;-1.592;2023-03-15T07:03:15;100658.56;;;-3.37;64.75
59545;BME280;45368;55.002;-1.592;2023-03-15T07:05:43;100646.10;;;-2.20;62.08
59545;BME280;45368;55.002;-1.592;2023-03-15T07:08:10;100639.73;;;-2.57;62.14
59545;BME280;45368;55.002;-1.592;2023-03-15T07:10:37;100628.02;;;-2.07;61.29
59545;BME280;45368;55.002;-1.592;2023-03-15T07:13:05;100624.09;;;-1.50;59.94
59545;BME280;45368;55.002;-1.592;2023-03-15T07:15:32;100618.17;;;-1.60;59.80
59545;BME280;45368;55.002;-1.592;2023-03-15T07:18:02;100612.36;;;-1.73;59.92
59545;BME280;45368;55.002;-1.592;2023-03-15T07:20:29;100607.73;;;-1.25;58.24
59545;BME280;45368;55.002;-1.592;2023-03-15T07:22:56;100604.25;;;-2.74;60.58
59545;BME280;45368;55.002;-1.592;2023-03-15T07:25:24;100593.28;;;-1.81;60.57
59545;BME280;45368;55.002;-1.592;2023-03-15T07:27:52;100595.50;;;-1.60;60.07
59545;BME280;45368;55.002;-1.592;2023-03-15T07:30:20;100595.39;;;-1.13;58.67
59545;BME280;45368;55.002;-1.592;2023-03-15T07:32:47;100597.85;;;-1.71;58.09
59545;BME280;45368;55.002;-1.592;2023-03-15T07:35:15;100601.76;;;-0.14;55.46
59545;BME280;45368;55.002;-1.592;2023-03-15T07:37:42;100610.62;;;-0.25;56.01
59545;BME280;45368;55.002;-1.592;2023-03-15T07:40:11;100615.35;;;-0.35;55.67
59545;BME280;45368;55.002;-1.592;2023-03-15T07:42:39;100610.45;;;-0.57;56.34
59545;BME280;45368;55.002;-1.592;2023-03-15T07:45:08;100609.62;;;0.13;55.62
59545;BME280;45368;55.002;-1.592;2023-03-15T07:47:36;100597.48;;;1.22;53.25
59545;BME280;45368;55.002;-1.592;2023-03-15T07:50:05;100611.93;;;0.68;53.14
59545;BME280;45368;55.002;-1.592;2023-03-15T07:52:32;100618.67;;;0.28;53.47
59545;BME280;45368;55.002;-1.592;2023-03-15T07:54:59;100602.72;;;0.85;53.42
59545;BME280;45368;55.002;-1.592;2023-03-15T07:57:27;100603.79;;;1.86;51.90
59545;BME280;45368;55.002;-1.592;2023-03-15T07:59:55;100620.29;;;-0.24;55.82
59545;BME280;45368;55.002;-1.592;2023-03-15T08:02:22;100621.89;;;-0.31;55.32
59545;BME280;45368;55.002;-1.592;2023-03-15T08:04:51;100614.49;;;0.72;53.53
59545;BME280;45368;55.002;-1.592;2023-03-15T08:07:18;100610.17;;;1.16;52.04
59545;BME280;45368;55.002;-1.592;2023-03-15T08:09:45;100608.98;;;1.19;51.45
59545;BME280;45368;55.002;-1.592;2023-03-15T08:12:13;100619.18;;;0.27;53.32
59545;BME280;45368;55.002;-1.592;2023-03-15T08:14:40;100623.82;;;0.45;53.51
59545;BME280;45368;55.002;-1.592;2023-03-15T08:17:07;100625.30;;;0.38;53.77
59545;BME280;45368;55.002;-1.592;2023-03-15T08:19:43;100615.72;;;0.36;53.33
59545;BME280;45368;55.002;-1.592;2023-03-15T08:22:10;100610.45;;;0.15;54.13
59545;BME280;45368;55.002;-1.592;2023-03-15T08:24:37;100605.78;;;0.65;53.47
59545;BME280;45368;55.002;-1.592;2023-03-15T08:27:04;100614.59;;;0.04;55.55
59545;BME280;45368;55.002;-1.592;2023-03-15T08:29:32;100612.80;;;0.38;55.28
59545;BME280;45368;55.002;-1.592;2023-03-15T08:31:59;100609.03;;;0.93;54.01
59545;BME280;45368;55.002;-1.592;2023-03-15T08:34:26;100599.22;;;3.02;49.97
59545;BME280;45368;55.002;-1.592;2023-03-15T08:36:53;100595.98;;;2.24;50.58
59545;BME280;45368;55.002;-1.592;2023-03-15T08:39:21;100606.19;;;1.81;52.06
59545;BME280;45368;55.002;-1.592;2023-03-15T08:41:48;100610.61;;;1.25;53.04
59545;BME280;45368;55.002;-1.592;2023-03-15T08:44:16;100608.25;;;2.69;51.19
59545;BME280;45368;55.002;-1.592;2023-03-15T08:46:43;100605.11;;;1.93;50.29
59545;BME280;45368;55.002;-1.592;2023-03-15T08:49:11;100602.55;;;1.30;51.59
59545;BME280;45368;55.002;-1.592;2023-03-15T08:51:39;100596.28;;;2.00;50.55
59545;BME280;45368;55.002;-1.592;2023-03-15T08:54:06;100595.50;;;1.01;51.28
59545;BME280;45368;55.002;-1.592;2023-03-15T08:56:34;100594.84;;;1.84;49.86
59545;BME280;45368;55.002;-1.592;2023-03-15T08:59:01;100600.99;;;1.24;49.67
59545;BME280;45368;55.002;-1.592;2023-03-15T09:01:30;100597.10;;;1.26;50.05
59545;BME280;45368;55.002;-1.592;2023-03-15T09:03:58;100592.90;;;1.90;49.70
59545;BME280;45368;55.002;-1.592;2023-03-15T09:06:27;100599.44;;;0.93;51.51
59545;BME280;45368;55.002;-1.592;2023-03-15T09:08:54;100589.65;;;1.77;49.93
59545;BME280;45368;55.002;-1.592;2023-03-15T09:11:22;100586.03;;;1.11;50.75
59545;BME280;45368;55.002;-1.592;2023-03-15T09:13:49;100581.68;;;1.32;50.83
59545;BME280;45368;55.002;-1.592;2023-03-15T09:16:16;100580.34;;;1.90;50.40
59545;BME280;45368;55.002;-1.592;2023-03-15T09:18:45;100577.73;;;2.22;49.49
59545;BME280;45368;55.002;-1.592;2023-03-15T09:21:13;100579.92;;;2.02;48.40
59545;BME280;45368;55.002;-1.592;2023-03-15T09:23:41;100586.68;;;2.31;48.47
59545;BME280;45368;55.002;-1.592;2023-03-15T09:26:08;100588.77;;;1.69;47.31
59545;BME280;45368;55.002;-1.592;2023-03-15T09:28:36;100583.11;;;2.95;47.99
59545;BME280;45368;55.002;-1.592;2023-03-15T09:31:04;100583.04;;;1.89;48.40
59545;BME280;45368;55.002;-1.592;2023-03-15T09:33:32;100587.07;;;2.59;48.91
59545;BME280;45368;55.002;-1.592;2023-03-15T09:35:59;100594.68;;;3.30;47.23
59545;BME280;45368;55.002;-1.592;2023-03-15T09:38:27;100605.50;;;1.97;48.38
59545;BME280;45368;55.002;-1.592;2023-03-15T09:40:56;100607.63;;;2.69;48.60
59545;BME280;45368;55.002;-1.592;2023-03-15T09:43:57;100605.54;;;2.65;49.66
59545;BME280;45368;55.002;-1.592;2023-03-15T09:46:29;100604.84;;;2.33;49.71
59545;BME280;45368;55.002;-1.592;2023-03-15T09:49:04;100601.25;;;2.63;50.17
59545;BME280;45368;55.002;-1.592;2023-03-15T09:51:40;100594.10;;;3.44;47.70
59545;BME280;45368;55.002;-1.592;2023-03-15T09:54:12;100597.03;;;3.24;47.98
59545;BME280;45368;55.002;-1.592;2023-03-15T09:56:48;100599.87;;;2.96;48.33
59545;BME280;45368;55.002;-1.592;2023-03-15T09:59:16;100606.23;;;2.96;47.65
59545;BME280;45368;55.002;-1.592;2023-03-15T10:01:45;100604.98;;;3.08;48.13
59545;BME280;45368;55.002;-1.592;2023-03-15T10:04:21;100606.68;;;3.27;47.41
59545;BME280;45368;55.002;-1.592;2023-03-15T10:06:54;100608.29;;;2.91;48.71
59545;BME280;45368;55.002;-1.592;2023-03-15T10:09:23;100608.19;;;2.94;47.65
59545;BME280;45368;55.002;-1.592;2023-03-15T10:12:01;100605.96;;;1.79;48.42
59545;BME280;45368;55.002;-1.592;2023-03-15T10:14:41;100604.29;;;3.18;48.60
59545;BME280;45368;55.002;-1.592;2023-03-15T10:17:17;100602.05;;;2.95;48.32
59545;BME280;45368;55.002;-1.592;2023-03-15T10:19:49;100597.87;;;2.86;50.14
59545;BME280;45368;55.002;-1.592;2023-03-15T10:22:24;100593.76;;;2.43;49.42
59545;BME280;45368;55.002;-1.592;2023-03-15T10:24:56;100593.50;;;2.71;51.00
59545;BME280;45368;55.002;-1.592;2023-03-15T10:27:32;100597.28;;;3.21;49.90
59545;BME280;45368;55.002;-1.592;2023-03-15T10:30:07;100592.71;;;4.20;47.15
59545;BME280;45368;55.002;-1.592;2023-03-15T10:32:42;100594.61;;;4.50;45.96
59545;BME280;45368;55.002;-1.592;2023-03-15T10:35:13;100583.17;;;4.46;46.30
59545;BME280;45368;55.002;-1.592;2023-03-15T10:37:41;100578.92;;;4.87;46.49
59545;BME280;45368;55.002;-1.592;2023-03-15T10:40:10;100578.95;;;4.57;46.06
59545;BME280;45368;55.002;-1.592;2023-03-15T10:42:38;100575.09;;;4.69;46.77
59545;BME280;45368;55.002;-1.592;2023-03-15T10:45:13;100573.24;;;4.49;46.13
59545;BME280;45368;55.002;-1.592;2023-03-15T10:47:45;100571.78;;;4.67;46.40
59545;BME280;45368;55.002;-1.592;2023-03-15T10:50:17;100572.01;;;5.15;45.48
59545;BME280;45368;55.002;-1.592;2023-03-15T10:52:55;100589.22;;;3.91;49.03
59545;BME280;45368;55.002;-1.592;2023-03-15T10:55:29;100594.06;;;3.12;50.04
59545;BME280;45368;55.002;-1.592;2023-03-15T10:58:11;100590.98;;;3.86;49.67
59545;BME280;45368;55.002;-1.592;2023-03-15T11:00:48;100594.58;;;3.79;50.20
59545;BME280;45368;55.002;-1.592;2023-03-15T11:03:17;100578.23;;;4.72;48.53
59545;BME280;45368;55.002;-1.592;2023-03-15T11:05:47;100577.46;;;4.31;48.69
59545;BME280;45368;55.002;-1.592;2023-03-15T11:08:17;100574.69;;;4.78;48.72
59545;BME280;45368;55.002;-1.592;2023-03-15T11:10:45;100565.23;;;5.76;47.59
59545;BME280;45368;55.002;-1.592;2023-03-15T11:13:19;100557.05;;;6.88;45.08
59545;BME280;45368;55.002;-1.592;2023-03-15T11:15:56;100550.79;;;6.61;44.13
59545;BME280;45368;55.002;-1.592;2023-03-15T11:18:29;100551.12;;;6.70;45.18
59545;BME280;45368;55.002;-1.592;2023-03-15T11:20:57;100543.05;;;7.50;43.84
59545;BME280;45368;55.002;-1.592;2023-03-15T11:23:28;100535.71;;;7.77;42.74
59545;BME280;45368;55.002;-1.592;2023-03-15T11:25:59;100542.73;;;7.09;44.58
59545;BME280;45368;55.002;-1.592;2023-03-15T11:28:28;100539.82;;;7.02;44.71
59545;BME280;45368;55.002;-1.592;2023-03-15T11:30:57;100536.40;;;6.70;44.81
59545;BME280;45368;55.002;-1.592;2023-03-15T11:33:37;100531.23;;;6.85;45.07
59545;BME280;45368;55.002;-1.592;2023-03-15T11:36:13;100517.51;;;9.19;42.23
59545;BME280;45368;55.002;-1.592;2023-03-15T11:38:43;100510.61;;;10.10;39.01
59545;BME280;45368;55.002;-1.592;2023-03-15T11:41:19;100499.94;;;10.25;39.16
59545;BME280;45368;55.002;-1.592;2023-03-15T11:43:59;100496.11;;;10.79;38.25
59545;BME280;45368;55.002;-1.592;2023-03-15T11:46:32;100492.71;;;10.87;38.40
59545;BME280;45368;55.002;-1.592;2023-03-15T11:49:04;100501.03;;;10.29;39.32
59545;BME280;45368;55.002;-1.592;2023-03-15T11:51:37;100502.00;;;9.91;38.78
59545;BME280;45368;55.002;-1.592;2023-03-15T11:54:08;100510.56;;;7.87;41.57
59545;BME280;45368;55.002;-1.592;2023-03-15T11:56:54;100507.10;;;8.46;41.83
59545;BME280;45368;55.002;-1.592;2023-03-15T11:59:26;100513.48;;;8.30;43.14
59545;BME280;45368;55.002;-1.592;2023-03-15T12:01:57;100513.76;;;7.70;44.44
59545;BME280;45368;55.002;-1.592;2023-03-15T12:04:47;100516.21;;;7.11;46.34
59545;BME280;45368;55.002;-1.592;2023-03-15T12:07:35;100518.35;;;5.79;48.68
59545;BME280;45368;55.002;-1.592;2023-03-15T12:10:30;100520.63;;;5.75;49.00
59545;BME280;45368;55.002;-1.592;2023-03-15T12:13:13;100511.28;;;6.91;47.58
59545;BME280;45368;55.002;-1.592;2023-03-15T12:15:46;100506.20;;;7.18;46.82
59545;BME280;45368;55.002;-1.592;2023-03-15T12:18:18;100504.42;;;7.10;48.34
59545;BME280;45368;55.002;-1.592;2023-03-15T12:20:55;100503.50;;;7.03;47.10
59545;BME280;45368;55.002;-1.592;2023-03-15T12:23:37;100499.09;;;6.59;47.54
59545;BME280;45368;55.002;-1.592;2023-03-15T12:26:15;100500.81;;;6.47;47.66
59545;BME280;45368;55.002;-1.592;2023-03-15T12:28:52;100501.87;;;5.83;48.46
59545;BME280;45368;55.002;-1.592;2023-03-15T12:31:42;100499.79;;;6.11;48.63
59545;BME280;45368;55.002;-1.592;2023-03-15T12:34:14;100498.84;;;4.98;51.03
59545;BME280;45368;55.002;-1.592;2023-03-15T12:36:53;100497.54;;;6.04;50.27
59545;BME280;45368;55.002;-1.592;2023-03-15T12:39:38;100494.77;;;6.04;50.58
59545;BME280;45368;55.002;-1.592;2023-03-15T12:42:12;100493.36;;;6.18;48.96
59545;BME280;45368;55.002;-1.592;2023-03-15T12:44:41;100493.34;;;6.38;48.44
59545;BME280;45368;55.002;-1.592;2023-03-15T12:47:10;100492.40;;;6.74;47.77
59545;BME280;45368;55.002;-1.592;2023-03-15T12:49:40;100490.19;;;6.98;47.42
59545;BME280;45368;55.002;-1.592;2023-03-15T12:52:41;100488.06;;;6.69;48.68
59545;BME280;45368;55.002;-1.592;2023-03-15T12:55:14;100480.91;;;7.36;46.77
59545;BME280;45368;55.002;-1.592;2023-03-15T12:57:47;100479.04;;;7.46;45.62
59545;BME280;45368;55.002;-1.592;2023-03-15T13:00:17;100467.46;;;8.09;44.59
59545;BME280;45368;55.002;-1.592;2023-03-15T13:02:49;100471.21;;;7.91;42.92